createdAt,value
2018-04-27T00:00:23.433Z,6.90
2018-04-27T00:03:28.707Z,6.85
2018-04-27T00:06:34.030Z,6.79
2018-04-27T00:09:39.864Z,6.82
2018-04-27T00:12:45.817Z,6.81
2018-04-27T00:15:51.150Z,6.76
2018-04-27T00:18:57.272Z,6.74
2018-04-27T00:22:03.107Z,6.71
2018-04-27T00:25:08.386Z,6.75
2018-04-27T00:28:13.678Z,6.69
2018-04-27T00:31:19.722Z,6.69
2018-04-27T00:34:25.806Z,6.67
2018-04-27T00:37:31.791Z,6.66
2018-04-27T00:40:37.086Z,6.61
2018-04-27T00:43:42.965Z,6.58
2018-04-27T00:46:48.959Z,6.58
2018-04-27T00:49:55.065Z,6.57
2018-04-27T00:53:11.847Z,6.56
2018-04-27T00:56:17.479Z,6.53
2018-04-27T00:59:23.716Z,6.47
2018-04-27T01:02:29.758Z,6.48
2018-04-27T01:05:35.903Z,6.50
2018-04-27T01:08:41.642Z,6.46
2018-04-27T01:11:46.922Z,6.47
2018-04-27T01:14:52.214Z,6.47
2018-04-27T01:17:58.426Z,6.41
2018-04-27T01:21:04.390Z,6.37
2018-04-27T01:24:10.218Z,6.35
2018-04-27T01:27:16.154Z,6.34
2018-04-27T01:30:22.093Z,6.37
2018-04-27T01:33:27.459Z,6.35
2018-04-27T01:36:33.706Z,6.37
2018-04-27T01:39:39.728Z,6.33
2018-04-27T01:42:45.938Z,6.34
2018-04-27T01:45:51.585Z,6.31
2018-04-27T01:48:56.900Z,6.25
2018-04-27T01:52:03.102Z,6.23
2018-04-27T01:55:09.213Z,6.15
2018-04-27T01:58:15.409Z,6.21
2018-04-27T02:01:21.125Z,6.15
2018-04-27T02:04:27.158Z,6.25
2018-04-27T02:07:33.252Z,6.16
2018-04-27T02:10:38.233Z,6.17
2018-04-27T02:13:43.485Z,6.15
2018-04-27T02:16:48.676Z,6.19
2018-04-27T02:19:54.677Z,6.19
2018-04-27T02:22:59.667Z,6.24
2018-04-27T02:26:04.868Z,6.22
2018-04-27T02:29:10.073Z,6.24
2018-04-27T02:32:16.201Z,6.21
2018-04-27T02:35:22.327Z,6.16
2018-04-27T02:38:28.333Z,6.18
2018-04-27T02:41:34.370Z,6.17
2018-04-27T02:44:40.412Z,6.12
2018-04-27T02:47:46.262Z,6.13
2018-04-27T02:50:52.366Z,6.13
2018-04-27T02:53:58.481Z,6.10
2018-04-27T02:57:04.659Z,6.15
2018-04-27T03:00:10.779Z,6.14
2018-04-27T03:03:16.889Z,6.06
2018-04-27T03:06:22.533Z,6.07
2018-04-27T03:09:28.598Z,6.05
2018-04-27T03:12:34.724Z,6.04
2018-04-27T03:15:40.449Z,5.99
2018-04-27T03:18:46.394Z,6.02
2018-04-27T03:21:52.419Z,6.00
2018-04-27T03:24:58.017Z,6.01
2018-04-27T03:28:04.165Z,5.95
2018-04-27T03:31:10.071Z,5.88
2018-04-27T03:34:16.413Z,5.82
2018-04-27T03:37:22.329Z,5.83
2018-04-27T03:40:28.347Z,5.86
2018-04-27T03:43:34.859Z,5.79
2018-04-27T03:46:40.668Z,5.78
2018-04-27T03:49:46.450Z,5.77
2018-04-27T03:52:51.366Z,5.74
2018-04-27T03:55:56.733Z,5.79
2018-04-27T03:59:02.590Z,5.71
2018-04-27T04:02:19.593Z,5.64
2018-04-27T04:05:29.125Z,5.62
2018-04-27T04:08:34.378Z,5.60
2018-04-27T04:11:40.474Z,5.66
2018-04-27T04:14:46.221Z,5.64
2018-04-27T04:17:52.424Z,5.67
2018-04-27T04:20:57.945Z,5.61
2018-04-27T04:24:03.598Z,5.58
2018-04-27T04:27:08.853Z,5.60
2018-04-27T04:30:14.960Z,5.56
2018-04-27T04:33:21.069Z,5.53
2018-04-27T04:36:26.956Z,5.57
2018-04-27T04:39:32.757Z,5.57
2018-04-27T04:42:38.772Z,5.54
2018-04-27T04:45:44.677Z,5.54
2018-04-27T04:48:50.741Z,5.64
2018-04-27T04:51:55.444Z,5.55
2018-04-27T04:55:00.510Z,5.61
2018-04-27T04:58:06.813Z,5.60
2018-04-27T05:01:12.424Z,5.64
2018-04-27T05:04:17.725Z,5.64
2018-04-27T05:07:23.372Z,5.66
2018-04-27T05:10:29.551Z,5.63
2018-04-27T05:13:35.709Z,5.73
2018-04-27T05:16:41.827Z,5.74
2018-04-27T05:19:55.304Z,5.78
2018-04-27T05:23:00.705Z,5.79
2018-04-27T05:26:05.667Z,5.91
2018-04-27T05:29:11.173Z,5.97
2018-04-27T05:32:15.817Z,6.07
2018-04-27T05:35:20.937Z,6.11
2018-04-27T05:38:26.172Z,6.17
2018-04-27T05:41:31.565Z,6.25
2018-04-27T05:44:36.424Z,6.26
2018-04-27T05:47:41.802Z,6.30
2018-04-27T05:50:46.665Z,6.32
2018-04-27T05:53:52.145Z,6.37
2018-04-27T05:56:57.950Z,6.41
2018-04-27T06:00:02.762Z,6.47
2018-04-27T06:03:08.469Z,6.45
2018-04-27T06:06:13.338Z,6.46
2018-04-27T06:09:19.181Z,6.48
2018-04-27T06:12:24.792Z,6.52
2018-04-27T06:15:29.985Z,6.57
2018-04-27T06:18:35.205Z,6.61
2018-04-27T06:21:41.124Z,6.66
2018-04-27T06:24:46.621Z,6.71
2018-04-27T06:27:52.233Z,6.77
2018-04-27T06:30:58.172Z,6.85
2018-04-27T06:34:04.181Z,6.90
2018-04-27T06:37:10.218Z,6.99
2018-04-27T06:40:16.329Z,7.04
2018-04-27T06:43:22.452Z,7.10
2018-04-27T06:46:27.883Z,7.17
2018-04-27T06:49:33.215Z,7.23
2018-04-27T06:52:38.133Z,7.29
2018-04-27T06:55:42.796Z,7.35
2018-04-27T06:58:48.084Z,7.41
2018-04-27T07:01:53.356Z,7.47
2018-04-27T07:04:59.126Z,7.53
2018-04-27T07:08:03.757Z,7.59
2018-04-27T07:11:08.646Z,7.65
2018-04-27T07:14:13.549Z,7.74
2018-04-27T07:17:19.253Z,7.80
2018-04-27T07:20:25.373Z,7.87
2018-04-27T07:23:30.235Z,7.94
2018-04-27T07:26:35.453Z,8.03
2018-04-27T07:29:40.661Z,8.11
2018-04-27T07:32:46.238Z,8.18
2018-04-27T07:35:52.067Z,8.26
2018-04-27T07:38:58.206Z,8.35
2018-04-27T07:42:03.596Z,8.42
2018-04-27T07:45:08.189Z,8.50
2018-04-27T07:48:13.569Z,8.59
2018-04-27T07:51:18.435Z,8.68
2018-04-27T07:54:23.560Z,8.76
2018-04-27T07:57:27.929Z,8.85
2018-04-27T08:00:33.327Z,8.95
2018-04-27T08:03:38.721Z,9.05
2018-04-27T08:06:44.194Z,9.15
2018-04-27T08:09:49.545Z,9.26
2018-04-27T08:12:54.533Z,9.36
2018-04-27T08:15:59.545Z,9.46
2018-04-27T08:19:04.557Z,9.56
2018-04-27T08:22:10.654Z,9.66
2018-04-27T08:25:15.633Z,9.76
2018-04-27T08:28:20.713Z,9.86
2018-04-27T08:31:26.006Z,9.97
2018-04-27T08:34:31.429Z,10.07
2018-04-27T08:37:36.829Z,10.17
2018-04-27T08:40:42.250Z,10.28
2018-04-27T08:43:47.210Z,10.39
2018-04-27T08:46:52.532Z,10.50
2018-04-27T08:49:57.744Z,10.61
2018-04-27T08:53:02.616Z,10.71
2018-04-27T08:56:07.625Z,10.84
2018-04-27T08:59:12.773Z,10.97
2018-04-27T09:02:18.098Z,11.09
2018-04-27T09:05:23.989Z,11.20
2018-04-27T09:08:29.848Z,11.31
2018-04-27T09:11:34.513Z,11.42
2018-04-27T09:14:41.157Z,11.53
2018-04-27T09:17:46.461Z,11.66
2018-04-27T09:20:51.159Z,11.77
2018-04-27T09:23:56.589Z,11.90
2018-04-27T09:27:01.854Z,12.04
2018-04-27T09:30:07.948Z,12.19
2018-04-27T09:33:13.155Z,12.30
2018-04-27T09:36:18.078Z,12.38
2018-04-27T09:39:22.941Z,12.48
2018-04-27T09:42:29.633Z,12.58
2018-04-27T09:45:34.513Z,12.65
2018-04-27T09:48:39.432Z,12.72
2018-04-27T09:51:44.821Z,12.74
2018-04-27T09:54:51.378Z,12.75
2018-04-27T09:57:56.997Z,12.75
2018-04-27T10:01:02.205Z,12.70
2018-04-27T10:04:07.416Z,12.69
2018-04-27T10:07:12.733Z,12.69
2018-04-27T10:10:18.965Z,12.69
2018-04-27T10:13:24.181Z,12.73
2018-04-27T10:16:30.216Z,12.75
2018-04-27T10:19:35.869Z,12.81
2018-04-27T10:22:41.114Z,12.86
2018-04-27T10:25:46.317Z,12.93
2018-04-27T10:28:52.049Z,13.00
2018-04-27T10:31:58.202Z,13.06
2018-04-27T10:35:04.263Z,13.11
2018-04-27T10:38:09.894Z,13.14
2018-04-27T10:41:15.749Z,13.19
2018-04-27T10:44:21.050Z,13.25
2018-04-27T10:47:25.700Z,13.30
2018-04-27T10:50:30.961Z,13.35
2018-04-27T10:53:35.828Z,13.38
2018-04-27T10:56:40.853Z,13.44
2018-04-27T10:59:45.437Z,13.51
2018-04-27T11:02:50.971Z,13.56
2018-04-27T11:05:55.556Z,13.61
2018-04-27T11:09:00.785Z,13.64
2018-04-27T11:12:06.345Z,13.68
2018-04-27T11:15:11.593Z,13.72
2018-04-27T11:18:17.384Z,13.75
2018-04-27T11:21:22.658Z,13.77
2018-04-27T11:24:27.545Z,13.78
2018-04-27T11:27:33.210Z,13.77
2018-04-27T11:30:39.702Z,13.76
2018-04-27T11:33:45.315Z,13.75
2018-04-27T11:36:50.589Z,13.73
2018-04-27T11:39:55.997Z,13.74
2018-04-27T11:43:02.165Z,13.74
2018-04-27T11:46:07.033Z,13.77
2018-04-27T11:49:12.253Z,13.76
2018-04-27T11:52:17.292Z,13.77
2018-04-27T11:55:21.997Z,13.76
2018-04-27T11:58:26.881Z,13.80
2018-04-27T12:01:31.727Z,13.81
2018-04-27T12:04:36.726Z,13.80
2018-04-27T12:07:41.973Z,13.82
2018-04-27T12:10:47.038Z,13.84
2018-04-27T12:13:51.694Z,13.86
2018-04-27T12:16:57.233Z,13.87
2018-04-27T12:20:03.182Z,13.87
2018-04-27T12:23:09.645Z,13.89
2018-04-27T12:26:14.937Z,13.91
2018-04-27T12:29:20.362Z,13.92
2018-04-27T12:32:25.247Z,13.93
2018-04-27T12:35:30.477Z,13.95
2018-04-27T12:38:35.762Z,13.98
2018-04-27T12:41:40.347Z,13.99
2018-04-27T12:44:45.560Z,14.01
2018-04-27T12:47:50.438Z,14.05
2018-04-27T12:50:56.538Z,14.06
2018-04-27T12:54:02.168Z,14.07
2018-04-27T12:57:06.509Z,14.09
2018-04-27T13:00:12.282Z,14.11
2018-04-27T13:03:17.640Z,14.16
2018-04-27T13:06:23.305Z,14.21
2018-04-27T13:09:27.905Z,14.25
2018-04-27T13:12:33.075Z,14.27
2018-04-27T13:15:37.729Z,14.30
2018-04-27T13:18:44.138Z,14.33
2018-04-27T13:21:50.000Z,14.35
2018-04-27T13:24:56.224Z,14.35
2018-04-27T13:28:02.060Z,14.36
2018-04-27T13:31:07.840Z,14.36
2018-04-27T13:34:13.877Z,14.38
2018-04-27T13:37:19.347Z,14.35
2018-04-27T13:40:24.536Z,14.34
2018-04-27T13:43:29.797Z,14.34
2018-04-27T13:46:34.989Z,14.33
2018-04-27T13:49:40.225Z,14.32
2018-04-27T13:52:44.858Z,14.34
2018-04-27T13:55:49.498Z,14.36
2018-04-27T13:58:55.083Z,14.38
2018-04-27T14:02:00.958Z,14.43
2018-04-27T14:05:06.553Z,14.46
2018-04-27T14:08:11.756Z,14.49
2018-04-27T14:11:17.227Z,14.54
2018-04-27T14:14:21.958Z,14.60
2018-04-27T14:17:31.465Z,14.64
2018-04-27T14:20:45.839Z,14.67
2018-04-27T14:23:52.155Z,14.68
2018-04-27T14:27:01.623Z,14.70
2018-04-27T14:30:09.528Z,14.72
2018-04-27T14:33:15.353Z,14.70
2018-04-27T14:36:21.036Z,14.66
2018-04-27T14:39:27.057Z,14.66
2018-04-27T14:42:32.638Z,14.66
2018-04-27T14:45:38.121Z,14.70
2018-04-27T14:48:43.916Z,14.72
2018-04-27T14:51:49.229Z,14.74
2018-04-27T14:54:54.749Z,14.76
2018-04-27T14:57:59.458Z,14.80
2018-04-27T15:01:04.671Z,14.83
2018-04-27T15:04:09.781Z,14.88
2018-04-27T15:07:14.993Z,14.91
2018-04-27T15:10:19.617Z,14.93
2018-04-27T15:13:24.841Z,14.95
2018-04-27T15:16:29.525Z,14.99
2018-04-27T15:19:34.956Z,15.03
2018-04-27T15:22:40.170Z,14.99
2018-04-27T15:25:46.205Z,15.00
2018-04-27T15:28:51.453Z,15.00
2018-04-27T15:31:56.053Z,15.02
2018-04-27T15:35:01.271Z,14.99
2018-04-27T15:38:07.029Z,14.97
2018-04-27T15:41:12.054Z,14.96
2018-04-27T15:44:17.718Z,14.94
2018-04-27T15:47:25.661Z,14.94
2018-04-27T15:50:30.858Z,14.91
2018-04-27T15:53:35.276Z,14.91
2018-04-27T15:56:40.745Z,14.91
2018-04-27T15:59:45.978Z,14.88
2018-04-27T16:02:50.840Z,14.86
2018-04-27T16:05:55.430Z,14.83
2018-04-27T16:09:00.924Z,14.81
2018-04-27T16:12:05.550Z,14.78
2018-04-27T16:15:10.468Z,14.74
2018-04-27T16:18:15.566Z,14.72
2018-04-27T16:21:20.296Z,14.70
2018-04-27T16:24:26.024Z,14.70
2018-04-27T16:27:30.616Z,14.67
2018-04-27T16:30:36.479Z,14.62
2018-04-27T16:33:41.073Z,14.60
2018-04-27T16:36:48.110Z,14.57
2018-04-27T16:39:52.701Z,14.54
2018-04-27T16:42:57.694Z,14.50
2018-04-27T16:46:03.433Z,14.47
2018-04-27T16:49:09.407Z,14.44
2018-04-27T16:52:15.321Z,14.41
2018-04-27T16:55:21.140Z,14.37
2018-04-27T16:58:27.473Z,14.33
2018-04-27T17:01:32.557Z,14.29
2018-04-27T17:04:37.841Z,14.27
2018-04-27T17:07:43.345Z,14.23
2018-04-27T17:10:48.233Z,14.20
2018-04-27T17:13:52.820Z,14.15
2018-04-27T17:16:58.045Z,14.11
2018-04-27T17:20:02.640Z,14.07
2018-04-27T17:23:08.237Z,14.03
2018-04-27T17:26:12.854Z,13.98
2018-04-27T17:29:18.201Z,13.95
2018-04-27T17:32:23.610Z,13.92
2018-04-27T17:35:28.655Z,13.88
2018-04-27T17:38:34.301Z,13.84
2018-04-27T17:41:38.928Z,13.81
2018-04-27T17:44:44.326Z,13.76
2018-04-27T17:47:49.357Z,13.72
2018-04-27T17:50:55.477Z,13.68
2018-04-27T17:54:01.090Z,13.63
2018-04-27T17:57:07.216Z,13.59
2018-04-27T18:00:12.532Z,13.54
2018-04-27T18:03:17.540Z,13.49
2018-04-27T18:06:23.182Z,13.45
2018-04-27T18:09:28.703Z,13.40
2018-04-27T18:12:33.920Z,13.36
2018-04-27T18:15:39.649Z,13.31
2018-04-27T18:18:44.517Z,13.26
2018-04-27T18:21:49.777Z,13.20
2018-04-27T18:24:55.173Z,13.16
2018-04-27T18:28:00.569Z,13.10
2018-04-27T18:31:05.980Z,13.04
2018-04-27T18:34:11.174Z,13.00
2018-04-27T18:37:16.049Z,12.94
2018-04-27T18:40:21.156Z,12.89
2018-04-27T18:43:27.270Z,12.84
2018-04-27T18:46:32.471Z,12.78
2018-04-27T18:49:37.581Z,12.74
2018-04-27T18:52:42.638Z,12.69
2018-04-27T18:55:47.225Z,12.65
2018-04-27T18:58:53.622Z,12.61
2018-04-27T19:01:58.477Z,12.56
2018-04-27T19:05:02.893Z,12.51
2018-04-27T19:08:08.300Z,12.44
2018-04-27T19:11:13.321Z,12.37
2018-04-27T19:14:18.407Z,12.32
2018-04-27T19:17:22.889Z,12.27
2018-04-27T19:20:27.677Z,12.21
2018-04-27T19:23:39.605Z,12.15
2018-04-27T19:26:44.727Z,12.11
2018-04-27T19:29:50.729Z,12.07
2018-04-27T19:32:55.925Z,12.03
2018-04-27T19:36:01.533Z,12.00
2018-04-27T19:39:06.772Z,11.97
2018-04-27T19:42:12.286Z,11.92
2018-04-27T19:45:17.302Z,11.87
2018-04-27T19:48:21.961Z,11.80
2018-04-27T19:51:27.632Z,11.81
2018-04-27T19:54:33.716Z,11.77
2018-04-27T19:57:38.093Z,11.75
2018-04-27T20:00:42.454Z,11.72
2018-04-27T20:03:47.992Z,11.69
2018-04-27T20:06:52.573Z,11.67
2018-04-27T20:10:00.305Z,11.63
2018-04-27T20:13:04.914Z,11.62
2018-04-27T20:16:10.236Z,11.59
2018-04-27T20:19:15.873Z,11.55
2018-04-27T20:22:21.153Z,11.52
2018-04-27T20:25:25.754Z,11.49
2018-04-27T20:28:32.658Z,11.48
2018-04-27T20:31:37.789Z,11.46
2018-04-27T20:34:42.442Z,11.43
2018-04-27T20:37:52.856Z,11.40
2018-04-27T20:40:57.457Z,11.38
2018-04-27T20:44:02.945Z,11.35
2018-04-27T20:47:07.589Z,11.32
2018-04-27T20:50:12.406Z,11.29
2018-04-27T20:53:16.914Z,11.25
2018-04-27T20:56:23.176Z,11.23
2018-04-27T20:59:28.475Z,11.21
2018-04-27T21:02:33.159Z,11.18
2018-04-27T21:05:38.394Z,11.16
2018-04-27T21:08:43.027Z,11.14
2018-04-27T21:11:47.409Z,11.12
2018-04-27T21:14:52.680Z,11.10
2018-04-27T21:17:57.779Z,11.08
2018-04-27T21:21:02.933Z,11.05
2018-04-27T21:24:08.121Z,11.03
2018-04-27T21:27:12.705Z,11.00
2018-04-27T21:30:18.114Z,10.97
2018-04-27T21:33:36.130Z,10.93
2018-04-27T21:36:45.721Z,10.90
2018-04-27T21:39:50.502Z,10.85
2018-04-27T21:42:55.529Z,10.80
2018-04-27T21:46:00.121Z,10.76
2018-04-27T21:49:09.898Z,10.71
2018-04-27T21:52:15.136Z,10.64
2018-04-27T21:55:19.497Z,10.60
2018-04-27T21:58:26.455Z,10.55
2018-04-27T22:01:31.044Z,10.51
2018-04-27T22:04:36.409Z,10.49
2018-04-27T22:07:42.082Z,10.44
2018-04-27T22:10:47.266Z,10.41
2018-04-27T22:13:54.452Z,10.36
2018-04-27T22:17:02.997Z,10.30
2018-04-27T22:20:08.218Z,10.30
2018-04-27T22:23:13.756Z,10.27
2018-04-27T22:26:18.665Z,10.24
2018-04-27T22:29:30.685Z,10.21
2018-04-27T22:32:37.229Z,10.21
2018-04-27T22:35:44.370Z,10.18
2018-04-27T22:38:50.514Z,10.16
2018-04-27T22:42:03.044Z,10.16
2018-04-27T22:45:08.217Z,10.12
2018-04-27T22:51:58.726Z,10.11
2018-04-27T22:55:03.925Z,10.10
2018-04-27T22:58:10.900Z,10.09
2018-04-27T23:01:16.169Z,10.07
2018-04-27T23:04:22.161Z,10.05
2018-04-27T23:07:37.868Z,10.03
2018-04-27T23:10:46.053Z,10.02
2018-04-27T23:17:30.686Z,10.02
2018-04-27T23:20:35.994Z,10.03
2018-04-27T23:23:40.603Z,10.00
2018-04-27T23:27:06.077Z,9.98
2018-04-27T23:30:11.337Z,9.95
2018-04-27T23:33:16.212Z,9.94
2018-04-27T23:36:21.250Z,9.94
2018-04-27T23:39:25.630Z,9.94
2018-04-27T23:42:32.677Z,9.92
2018-04-27T23:45:37.897Z,9.91
2018-04-27T23:48:42.489Z,9.89
2018-04-27T23:51:47.629Z,9.85
2018-04-27T23:54:54.157Z,9.80
2018-04-27T23:57:59.122Z,9.78
